createdAt,value
2023-01-09T00:00:50.721Z, 27.09
2023-01-09T00:01:50.748Z, 27.10
2023-01-09T00:02:50.755Z, 27.11
2023-01-09T00:03:50.835Z, 27.08
2023-01-09T00:04:50.768Z, 27.09
2023-01-09T00:05:50.773Z, 27.08
2023-01-09T00:06:50.784Z, 27.09
2023-01-09T00:07:50.785Z, 27.05
2023-01-09T00:08:50.881Z, 27.05
2023-01-09T00:09:50.860Z, 27.04
2023-01-09T00:10:50.940Z, 27.02
2023-01-09T00:11:50.944Z, 27.03
2023-01-09T00:12:50.922Z, 27.02
2023-01-09T00:13:50.958Z, 27.01
2023-01-09T00:14:50.939Z, 27.00
2023-01-09T00:15:50.977Z, 26.97
2023-01-09T00:16:51.067Z, 26.96
2023-01-09T00:17:50.959Z, 26.95
2023-01-09T00:18:50.980Z, 26.92
2023-01-09T00:19:50.978Z, 26.92
2023-01-09T00:20:51.022Z, 26.92
2023-01-09T00:21:51.032Z, 26.92
2023-01-09T00:22:51.035Z, 26.93
2023-01-09T00:23:51.026Z, 26.93
2023-01-09T00:24:51.028Z, 26.92
2023-01-09T00:25:51.049Z, 26.92
2023-01-09T00:26:51.087Z, 26.90
2023-01-09T00:27:51.088Z, 26.90
2023-01-09T00:28:51.086Z, 26.89
2023-01-09T00:29:51.108Z, 26.88
2023-01-09T00:30:51.197Z, 26.89
2023-01-09T00:31:51.197Z, 26.89
2023-01-09T00:32:51.148Z, 26.91
2023-01-09T00:33:51.234Z, 26.89
2023-01-09T00:34:51.224Z, 26.86
2023-01-09T00:35:51.269Z, 26.85
2023-01-09T00:36:51.233Z, 26.85
2023-01-09T00:37:51.266Z, 26.85
2023-01-09T00:38:51.249Z, 26.86
2023-01-09T00:39:51.254Z, 26.85
2023-01-09T00:40:51.252Z, 26.84
2023-01-09T00:41:51.268Z, 26.82
2023-01-09T00:42:51.357Z, 26.82
2023-01-09T00:43:51.329Z, 26.80
2023-01-09T00:44:51.396Z, 26.80
2023-01-09T00:45:51.381Z, 26.80
2023-01-09T00:46:51.405Z, 26.81
2023-01-09T00:47:51.376Z, 26.77
2023-01-09T00:48:51.407Z, 26.76
2023-01-09T00:49:51.412Z, 26.77
2023-01-09T00:50:51.405Z, 26.76
2023-01-09T00:51:51.477Z, 26.75
2023-01-09T00:52:51.477Z, 26.75
2023-01-09T00:53:51.526Z, 26.75
2023-01-09T00:54:51.493Z, 26.75
2023-01-09T00:55:51.487Z, 26.77
2023-01-09T00:56:51.528Z, 26.76
2023-01-09T00:57:51.490Z, 26.74
2023-01-09T00:58:51.564Z, 26.74
2023-01-09T00:59:51.552Z, 26.75
2023-01-09T01:00:51.723Z, 26.75
2023-01-09T01:01:51.794Z, 26.74
2023-01-09T01:02:51.679Z, 26.72
2023-01-09T01:03:51.554Z, 26.72
2023-01-09T01:04:51.602Z, 26.70
2023-01-09T01:05:51.634Z, 26.68
2023-01-09T01:06:51.608Z, 26.69
2023-01-09T01:07:51.685Z, 26.67
2023-01-09T01:08:51.642Z, 26.64
2023-01-09T01:09:51.727Z, 26.63
2023-01-09T01:10:51.717Z, 26.64
2023-01-09T01:11:51.747Z, 26.62
2023-01-09T01:12:51.756Z, 26.62
2023-01-09T01:13:51.713Z, 26.62
2023-01-09T01:14:51.720Z, 26.62
2023-01-09T01:15:51.727Z, 26.61
2023-01-09T01:16:51.858Z, 26.59
2023-01-09T01:17:51.791Z, 26.57
2023-01-09T01:18:51.834Z, 26.58
2023-01-09T01:19:51.819Z, 26.61
2023-01-09T01:20:51.813Z, 26.61
2023-01-09T01:21:51.820Z, 26.60
2023-01-09T01:22:51.829Z, 26.60
2023-01-09T01:23:51.841Z, 26.58
2023-01-09T01:24:51.848Z, 26.55
2023-01-09T01:25:51.882Z, 26.55
2023-01-09T01:26:51.878Z, 26.55
2023-01-09T01:27:51.986Z, 26.54
2023-01-09T01:28:51.935Z, 26.52
2023-01-09T01:29:51.937Z, 26.50
2023-01-09T01:30:51.986Z, 26.48
2023-01-09T01:31:51.965Z, 26.47
2023-01-09T01:32:52.034Z, 26.48
2023-01-09T01:33:52.011Z, 26.48
2023-01-09T01:34:52.011Z, 26.49
2023-01-09T01:35:52.031Z, 26.49
2023-01-09T01:36:52.019Z, 26.46
2023-01-09T01:37:52.092Z, 26.45
2023-01-09T01:38:52.072Z, 26.44
2023-01-09T01:39:52.065Z, 26.42
2023-01-09T01:40:52.068Z, 26.40
2023-01-09T01:41:52.097Z, 26.39
2023-01-09T01:42:52.092Z, 26.40
2023-01-09T01:43:52.136Z, 26.38
2023-01-09T01:44:52.131Z, 26.38
2023-01-09T01:45:52.170Z, 26.39
2023-01-09T01:46:52.169Z, 26.38
2023-01-09T01:47:52.151Z, 26.36
2023-01-09T01:48:52.237Z, 26.35
2023-01-09T01:49:52.200Z, 26.35
2023-01-09T01:50:52.256Z, 26.34
2023-01-09T01:51:52.245Z, 26.32
2023-01-09T01:52:52.293Z, 26.31
2023-01-09T01:53:52.265Z, 26.29
2023-01-09T01:54:52.276Z, 26.29
2023-01-09T01:55:52.265Z, 26.28
2023-01-09T01:56:52.298Z, 26.29
2023-01-09T01:57:52.282Z, 26.30
2023-01-09T01:58:52.379Z, 26.28
2023-01-09T01:59:52.339Z, 26.27
2023-01-09T02:00:52.434Z, 26.27
2023-01-09T02:01:52.473Z, 26.26
2023-01-09T02:02:52.380Z, 26.25
2023-01-09T02:03:52.449Z, 26.23
2023-01-09T02:04:52.426Z, 26.24
2023-01-09T02:05:52.461Z, 26.24
2023-01-09T02:06:52.445Z, 26.24
2023-01-09T02:07:52.482Z, 26.23
2023-01-09T02:08:52.449Z, 26.23
2023-01-09T02:09:52.452Z, 26.23
2023-01-09T02:10:52.479Z, 26.22
2023-01-09T02:11:52.547Z, 26.22
2023-01-09T02:12:52.524Z, 26.22
2023-01-09T02:13:52.512Z, 26.22
2023-01-09T02:14:52.560Z, 26.20
2023-01-09T02:15:52.586Z, 26.20
2023-01-09T02:16:52.563Z, 26.20
2023-01-09T02:17:52.553Z, 26.20
2023-01-09T02:18:52.562Z, 26.19
2023-01-09T02:19:52.569Z, 26.16
2023-01-09T02:20:52.595Z, 26.15
2023-01-09T02:21:52.685Z, 26.17
2023-01-09T02:22:52.653Z, 26.16
2023-01-09T02:23:52.672Z, 26.15
2023-01-09T02:24:52.653Z, 26.13
2023-01-09T02:25:52.732Z, 26.11
2023-01-09T02:26:52.702Z, 26.10
2023-01-09T02:27:52.701Z, 26.09
2023-01-09T02:28:52.707Z, 26.10
2023-01-09T02:29:52.705Z, 26.10
2023-01-09T02:30:52.788Z, 26.09
2023-01-09T02:31:52.820Z, 26.09
2023-01-09T02:32:52.834Z, 26.08
2023-01-09T02:33:52.792Z, 26.07
2023-01-09T02:34:52.826Z, 26.06
2023-01-09T02:35:52.809Z, 26.05
2023-01-09T02:36:52.813Z, 26.07
2023-01-09T02:37:52.816Z, 26.05
2023-01-09T02:38:52.826Z, 26.05
2023-01-09T02:39:52.824Z, 26.05
2023-01-09T02:40:52.849Z, 26.04
2023-01-09T02:41:52.939Z, 26.03
2023-01-09T02:42:52.906Z, 26.03
2023-01-09T02:43:52.980Z, 26.03
2023-01-09T02:44:52.964Z, 26.03
2023-01-09T02:45:52.997Z, 26.02
2023-01-09T02:46:52.954Z, 26.00
2023-01-09T02:47:52.951Z, 25.99
2023-01-09T02:48:52.974Z, 25.99
2023-01-09T02:49:52.973Z, 25.98
2023-01-09T02:50:53.053Z, 25.98
2023-01-09T02:51:53.063Z, 25.97
2023-01-09T02:52:53.031Z, 25.98
2023-01-09T02:53:53.112Z, 26.00
2023-01-09T02:54:53.091Z, 25.98
2023-01-09T02:55:53.113Z, 25.98
2023-01-09T02:56:53.085Z, 25.99
2023-01-09T02:57:53.142Z, 26.00
2023-01-09T02:58:53.109Z, 25.98
2023-01-09T02:59:54.117Z, 26.00
2023-01-09T03:00:53.295Z, 25.98
2023-01-09T03:01:53.280Z, 25.97
2023-01-09T03:02:53.148Z, 25.96
2023-01-09T03:03:53.164Z, 25.97
2023-01-09T03:04:53.258Z, 25.95
2023-01-09T03:05:53.214Z, 25.94
2023-01-09T03:06:53.275Z, 25.93
2023-01-09T03:07:53.246Z, 25.92
2023-01-09T03:08:53.258Z, 25.93
2023-01-09T03:09:53.255Z, 25.92
2023-01-09T03:10:53.297Z, 25.90
2023-01-09T03:11:53.308Z, 25.88
2023-01-09T03:12:53.292Z, 25.87
2023-01-09T03:13:53.370Z, 25.87
2023-01-09T03:14:53.348Z, 25.86
2023-01-09T03:15:53.404Z, 25.87
2023-01-09T03:16:53.396Z, 25.87
2023-01-09T03:17:53.445Z, 25.87
2023-01-09T03:18:53.404Z, 25.86
2023-01-09T03:19:53.465Z, 25.85
2023-01-09T03:20:53.428Z, 25.85
2023-01-09T03:21:53.439Z, 25.84
2023-01-09T03:22:53.435Z, 25.82
2023-01-09T03:23:53.436Z, 25.82
2023-01-09T03:24:53.515Z, 25.80
2023-01-09T03:25:53.467Z, 25.79
2023-01-09T03:26:53.564Z, 25.79
2023-01-09T03:27:53.495Z, 25.79
2023-01-09T03:28:53.575Z, 25.77
2023-01-09T03:29:53.572Z, 25.77
2023-01-09T03:30:53.562Z, 25.76
2023-01-09T03:31:53.559Z, 25.76
2023-01-09T03:32:53.566Z, 25.75
2023-01-09T03:33:53.599Z, 25.75
2023-01-09T03:34:53.574Z, 25.74
2023-01-09T03:35:53.661Z, 25.74
2023-01-09T03:36:53.678Z, 25.74
2023-01-09T03:37:53.645Z, 25.74
2023-01-09T03:38:53.639Z, 25.73
2023-01-09T03:39:53.664Z, 25.74
2023-01-09T03:40:53.721Z, 25.71
2023-01-09T03:41:53.703Z, 25.69
2023-01-09T03:42:53.695Z, 25.70
2023-01-09T03:43:53.766Z, 25.72
2023-01-09T03:44:53.759Z, 25.71
2023-01-09T03:45:53.801Z, 25.69
2023-01-09T03:46:53.768Z, 25.71
2023-01-09T03:47:53.765Z, 25.70
2023-01-09T03:48:53.770Z, 25.68
2023-01-09T03:49:53.780Z, 25.69
2023-01-09T03:50:53.869Z, 25.67
2023-01-09T03:51:53.848Z, 25.67
2023-01-09T03:52:53.884Z, 25.66
2023-01-09T03:53:53.862Z, 25.65
2023-01-09T03:54:53.896Z, 25.65
2023-01-09T03:55:53.888Z, 25.64
2023-01-09T03:56:53.878Z, 25.64
2023-01-09T03:57:53.953Z, 25.64
2023-01-09T03:58:53.924Z, 25.64
2023-01-09T03:59:53.982Z, 25.63
2023-01-09T04:00:54.076Z, 25.63
2023-01-09T04:01:54.071Z, 25.63
2023-01-09T04:02:53.942Z, 25.62
2023-01-09T04:03:54.033Z, 25.62
2023-01-09T04:04:54.042Z, 25.61
2023-01-09T04:05:54.021Z, 25.63
2023-01-09T04:06:54.054Z, 25.64
2023-01-09T04:07:54.048Z, 25.64
2023-01-09T04:08:54.055Z, 25.63
2023-01-09T04:09:54.046Z, 25.61
2023-01-09T04:10:54.105Z, 25.60
2023-01-09T04:11:54.074Z, 25.59
2023-01-09T04:12:54.077Z, 25.56
2023-01-09T04:13:54.135Z, 25.55
2023-01-09T04:14:54.120Z, 25.54
2023-01-09T04:15:54.171Z, 25.52
2023-01-09T04:16:54.138Z, 25.51
2023-01-09T04:17:54.180Z, 25.52
2023-01-09T04:18:54.161Z, 25.51
2023-01-09T04:19:54.177Z, 25.52
2023-01-09T04:20:55.451Z, 25.52
2023-01-09T04:21:54.192Z, 25.50
2023-01-09T04:22:54.263Z, 25.50
2023-01-09T04:23:54.380Z, 25.48
2023-01-09T04:24:54.373Z, 25.49
2023-01-09T04:25:54.268Z, 25.47
2023-01-09T04:26:54.370Z, 25.47
2023-01-09T04:27:54.375Z, 25.48
2023-01-09T04:28:54.394Z, 25.46
2023-01-09T04:29:54.380Z, 25.45
2023-01-09T04:30:54.306Z, 25.50
2023-01-09T04:31:54.351Z, 26.36
2023-01-09T04:32:54.406Z, 26.83
2023-01-09T04:33:54.405Z, 32.42
2023-01-09T04:34:54.379Z, 39.63
2023-01-09T04:35:54.374Z, 45.19
2023-01-09T04:36:54.364Z, 45.49
2023-01-09T04:37:54.373Z, 42.91
2023-01-09T04:38:54.456Z, 40.09
2023-01-09T04:39:54.439Z, 36.77
2023-01-09T04:40:54.489Z, 33.98
2023-01-09T04:41:54.456Z, 32.27
2023-01-09T04:42:54.509Z, 30.66
2023-01-09T04:43:54.475Z, 29.10
2023-01-09T04:44:54.473Z, 27.77
2023-01-09T04:45:54.502Z, 26.74
2023-01-09T04:46:54.485Z, 27.86
2023-01-09T04:47:54.550Z, 32.97
2023-01-09T04:48:54.514Z, 37.52
2023-01-09T04:49:54.591Z, 40.38
2023-01-09T04:50:54.559Z, 43.14
2023-01-09T04:51:54.622Z, 45.14
2023-01-09T04:52:54.579Z, 45.48
2023-01-09T04:53:54.592Z, 43.42
2023-01-09T04:54:54.621Z, 41.21
2023-01-09T04:55:54.592Z, 38.96
2023-01-09T04:56:54.721Z, 36.94
2023-01-09T04:57:54.641Z, 35.05
2023-01-09T04:58:54.653Z, 32.91
2023-01-09T04:59:54.636Z, 29.98
2023-01-09T05:00:54.755Z, 28.31
2023-01-09T05:01:54.858Z, 28.03
2023-01-09T05:02:54.667Z, 27.93
2023-01-09T05:03:54.728Z, 31.61
2023-01-09T05:04:54.684Z, 36.98
2023-01-09T05:05:54.704Z, 41.99
2023-01-09T05:06:54.715Z, 46.67
2023-01-09T05:07:54.719Z, 50.99
2023-01-09T05:08:54.741Z, 55.62
2023-01-09T05:09:54.764Z, 59.48
2023-01-09T05:10:54.763Z, 68.96
2023-01-09T05:11:54.857Z, 54.82
2023-01-09T05:12:54.823Z, 51.62
2023-01-09T05:13:54.890Z, 52.87
2023-01-09T05:14:54.856Z, 54.04
2023-01-09T05:15:54.854Z, 56.56
2023-01-09T05:16:54.913Z, 59.78
2023-01-09T05:17:54.875Z, 68.37
2023-01-09T05:18:54.904Z, 57.52
2023-01-09T05:19:54.887Z, 52.95
2023-01-09T05:20:54.895Z, 54.10
2023-01-09T05:21:54.893Z, 55.52
2023-01-09T05:22:54.897Z, 57.86
2023-01-09T05:23:54.969Z, 61.03
2023-01-09T05:24:54.963Z, 69.15
2023-01-09T05:25:54.996Z, 55.22
2023-01-09T05:26:55.001Z, 53.81
2023-01-09T05:27:54.975Z, 55.04
2023-01-09T05:28:54.993Z, 56.66
2023-01-09T05:29:54.995Z, 59.29
2023-01-09T05:30:55.004Z, 66.75
2023-01-09T05:31:55.087Z, 60.65
2023-01-09T05:32:55.023Z, 53.60
2023-01-09T05:33:55.056Z, 55.16
2023-01-09T05:34:55.045Z, 56.46
2023-01-09T05:35:55.071Z, 57.32
2023-01-09T05:36:55.082Z, 57.91
2023-01-09T05:37:55.093Z, 59.59
2023-01-09T05:38:55.144Z, 59.57
2023-01-09T05:39:55.114Z, 58.74
2023-01-09T05:40:55.140Z, 57.72
2023-01-09T05:41:55.141Z, 57.00
2023-01-09T05:42:55.159Z, 56.84
2023-01-09T05:43:55.169Z, 56.70
2023-01-09T05:44:55.173Z, 55.52
2023-01-09T05:45:55.225Z, 54.49
2023-01-09T05:46:55.207Z, 53.98
2023-01-09T05:47:55.225Z, 53.60
2023-01-09T05:48:55.238Z, 53.12
2023-01-09T05:49:55.220Z, 52.25
2023-01-09T05:50:55.237Z, 51.59
2023-01-09T05:51:55.245Z, 51.22
2023-01-09T05:52:55.272Z, 50.92
2023-01-09T05:53:55.290Z, 50.53
2023-01-09T05:54:55.282Z, 50.15
2023-01-09T05:55:55.343Z, 49.76
2023-01-09T05:56:55.342Z, 49.38
2023-01-09T05:57:55.353Z, 48.98
2023-01-09T05:58:55.344Z, 48.68
2023-01-09T05:59:55.361Z, 48.36
2023-01-09T06:00:55.447Z, 48.00
2023-01-09T06:01:55.445Z, 47.68
2023-01-09T06:02:55.474Z, 47.28
2023-01-09T06:03:55.388Z, 46.92
2023-01-09T06:04:55.462Z, 46.58
2023-01-09T06:05:55.432Z, 46.22
2023-01-09T06:06:55.480Z, 45.89
2023-01-09T06:07:55.461Z, 45.53
2023-01-09T06:08:55.451Z, 45.16
2023-01-09T06:09:55.511Z, 44.80
2023-01-09T06:10:55.505Z, 44.41
2023-01-09T06:11:55.522Z, 44.03
2023-01-09T06:12:55.521Z, 43.67
2023-01-09T06:13:55.569Z, 43.26
2023-01-09T06:14:55.559Z, 42.91
2023-01-09T06:15:55.602Z, 42.58
2023-01-09T06:16:55.564Z, 42.44
2023-01-09T06:17:55.585Z, 42.22
2023-01-09T06:18:55.571Z, 42.05
2023-01-09T06:19:55.562Z, 41.86
2023-01-09T06:20:55.568Z, 41.61
2023-01-09T06:21:55.583Z, 41.41
2023-01-09T06:22:55.586Z, 41.23
2023-01-09T06:23:55.621Z, 41.05
2023-01-09T06:24:55.615Z, 40.90
2023-01-09T06:25:55.622Z, 40.72
2023-01-09T06:26:55.636Z, 40.58
2023-01-09T06:27:55.656Z, 40.45
2023-01-09T06:28:55.663Z, 40.31
2023-01-09T06:29:55.678Z, 40.20
2023-01-09T06:30:55.733Z, 40.10
2023-01-09T06:31:55.691Z, 39.98
2023-01-09T06:32:55.771Z, 39.89
2023-01-09T06:33:55.738Z, 39.77
2023-01-09T06:34:55.747Z, 39.65
2023-01-09T06:35:55.747Z, 39.54
2023-01-09T06:36:55.749Z, 39.46
2023-01-09T06:37:55.763Z, 39.37
2023-01-09T06:38:55.774Z, 39.30
2023-01-09T06:39:55.834Z, 39.18
2023-01-09T06:40:55.819Z, 39.13
2023-01-09T06:41:55.868Z, 39.04
2023-01-09T06:42:55.841Z, 38.97
2023-01-09T06:43:55.871Z, 38.92
2023-01-09T06:44:55.856Z, 38.81
2023-01-09T06:45:55.908Z, 38.72
2023-01-09T06:46:55.900Z, 38.67
2023-01-09T06:47:55.898Z, 38.58
2023-01-09T06:48:55.950Z, 38.51
2023-01-09T06:49:55.916Z, 38.44
2023-01-09T06:50:55.918Z, 38.36
2023-01-09T06:51:55.913Z, 38.32
2023-01-09T06:52:55.938Z, 38.24
2023-01-09T06:53:55.936Z, 38.16
2023-01-09T06:54:55.925Z, 38.08
2023-01-09T06:55:55.971Z, 38.02
2023-01-09T06:56:55.950Z, 37.95
2023-01-09T06:57:55.963Z, 37.93
2023-01-09T06:58:55.967Z, 37.89
2023-01-09T06:59:55.965Z, 37.80
2023-01-09T07:00:56.034Z, 37.73
2023-01-09T07:01:56.099Z, 37.67
2023-01-09T07:02:56.035Z, 37.64
2023-01-09T07:03:56.062Z, 37.57
2023-01-09T07:04:56.097Z, 37.56
2023-01-09T07:05:56.095Z, 37.48
2023-01-09T07:06:56.117Z, 37.43
2023-01-09T07:07:56.096Z, 37.38
2023-01-09T07:08:56.152Z, 37.38
2023-01-09T07:09:56.177Z, 37.32
2023-01-09T07:10:56.155Z, 37.26
2023-01-09T07:11:56.123Z, 37.21
2023-01-09T07:12:56.119Z, 37.17
2023-01-09T07:13:56.130Z, 37.14
2023-01-09T07:14:57.636Z, 37.09
2023-01-09T07:15:56.230Z, 37.02
2023-01-09T07:16:56.165Z, 36.97
2023-01-09T07:17:56.193Z, 36.96
2023-01-09T07:18:56.203Z, 36.91
2023-01-09T07:19:56.191Z, 36.90
2023-01-09T07:20:56.185Z, 36.85
2023-01-09T07:21:56.196Z, 36.82
2023-01-09T07:22:56.242Z, 36.77
2023-01-09T07:23:56.287Z, 36.72
2023-01-09T07:24:56.271Z, 36.71
2023-01-09T07:25:56.267Z, 36.66
2023-01-09T07:26:56.270Z, 36.62
2023-01-09T07:27:56.264Z, 36.56
2023-01-09T07:28:56.357Z, 36.51
2023-01-09T07:29:56.328Z, 36.51
2023-01-09T07:30:56.381Z, 36.47
2023-01-09T07:31:56.361Z, 36.45
2023-01-09T07:32:56.350Z, 36.42
2023-01-09T07:33:56.355Z, 36.36
2023-01-09T07:34:56.375Z, 36.34
2023-01-09T07:35:56.369Z, 36.34
2023-01-09T07:36:56.371Z, 36.26
2023-01-09T07:37:56.450Z, 36.24
2023-01-09T07:38:56.428Z, 36.22
2023-01-09T07:39:56.490Z, 36.18
2023-01-09T07:40:56.488Z, 36.15
2023-01-09T07:41:56.482Z, 36.14
2023-01-09T07:42:56.476Z, 36.14
2023-01-09T07:43:56.491Z, 36.11
2023-01-09T07:44:56.488Z, 36.08
2023-01-09T07:45:56.598Z, 36.05
2023-01-09T07:46:56.556Z, 35.99
2023-01-09T07:47:56.579Z, 35.97
2023-01-09T07:48:56.577Z, 35.97
2023-01-09T07:49:56.618Z, 35.92
2023-01-09T07:50:56.600Z, 35.91
2023-01-09T07:51:56.611Z, 35.88
2023-01-09T07:52:56.608Z, 35.84
2023-01-09T07:53:56.642Z, 35.76
2023-01-09T07:54:56.690Z, 35.76
2023-01-09T07:55:56.651Z, 35.76
2023-01-09T07:56:56.737Z, 35.75
2023-01-09T07:57:56.702Z, 35.68
2023-01-09T07:58:56.749Z, 35.65
2023-01-09T07:59:56.714Z, 35.63
2023-01-09T08:00:56.767Z, 35.60
2023-01-09T08:01:56.825Z, 35.53
2023-01-09T08:02:56.783Z, 35.53
2023-01-09T08:03:56.776Z, 35.52
2023-01-09T08:04:56.778Z, 35.53
2023-01-09T08:05:56.832Z, 35.48
2023-01-09T08:06:56.852Z, 35.45
2023-01-09T08:07:56.859Z, 35.42
2023-01-09T08:08:56.853Z, 35.40
2023-01-09T08:09:56.859Z, 35.41
2023-01-09T08:10:56.927Z, 35.36
2023-01-09T08:11:57.665Z, 35.34
2023-01-09T08:12:56.972Z, 35.34
2023-01-09T08:13:56.929Z, 35.30
2023-01-09T08:14:56.936Z, 35.27
2023-01-09T08:15:56.979Z, 35.29
2023-01-09T08:16:56.954Z, 35.25
2023-01-09T08:17:57.040Z, 35.22
2023-01-09T08:18:57.017Z, 35.18
2023-01-09T08:19:57.072Z, 35.10
2023-01-09T08:20:57.039Z, 35.09
2023-01-09T08:21:57.042Z, 35.12
2023-01-09T08:22:57.042Z, 35.13
2023-01-09T08:23:57.052Z, 35.10
2023-01-09T08:24:57.075Z, 35.09
2023-01-09T08:25:57.078Z, 35.06
2023-01-09T08:26:57.098Z, 35.01
2023-01-09T08:27:57.105Z, 34.99
2023-01-09T08:28:57.199Z, 35.00
2023-01-09T08:29:57.198Z, 34.95
2023-01-09T08:30:57.172Z, 34.88
2023-01-09T08:31:57.181Z, 34.93
2023-01-09T08:32:57.172Z, 34.90
2023-01-09T08:33:57.277Z, 34.88
2023-01-09T08:34:57.271Z, 34.89
2023-01-09T08:35:57.393Z, 34.87
2023-01-09T08:36:57.294Z, 34.83
2023-01-09T08:37:57.335Z, 34.84
2023-01-09T08:38:57.291Z, 34.82
2023-01-09T08:39:57.377Z, 34.75
2023-01-09T08:40:57.340Z, 34.78
2023-01-09T08:41:57.379Z, 34.79
2023-01-09T08:42:57.354Z, 34.81
2023-01-09T08:43:57.348Z, 34.78
2023-01-09T08:44:57.371Z, 34.71
2023-01-09T08:45:57.380Z, 34.71
2023-01-09T08:46:57.460Z, 34.71
2023-01-09T08:47:57.449Z, 34.73
2023-01-09T08:48:57.495Z, 34.65
2023-01-09T08:49:57.464Z, 34.57
2023-01-09T08:50:57.462Z, 34.55
2023-01-09T08:51:57.550Z, 34.60
2023-01-09T08:52:57.513Z, 34.57
2023-01-09T08:53:57.563Z, 34.50
2023-01-09T08:54:57.549Z, 34.49
2023-01-09T08:55:57.599Z, 34.48
2023-01-09T08:56:57.585Z, 34.48
2023-01-09T08:57:57.582Z, 34.47
2023-01-09T08:58:57.580Z, 34.42
2023-01-09T08:59:57.575Z, 34.43
2023-01-09T09:00:57.659Z, 34.39
2023-01-09T09:01:57.678Z, 34.37
2023-01-09T09:02:57.712Z, 34.31
2023-01-09T09:03:57.639Z, 34.25
2023-01-09T09:04:57.647Z, 34.26
2023-01-09T09:05:57.730Z, 34.25
2023-01-09T09:06:57.708Z, 34.28
2023-01-09T09:07:57.736Z, 34.24
2023-01-09T09:08:57.731Z, 34.23
2023-01-09T09:09:57.717Z, 34.20
2023-01-09T09:10:57.742Z, 34.20
2023-01-09T09:11:57.739Z, 34.16
2023-01-09T09:12:57.817Z, 34.18
2023-01-09T09:13:57.822Z, 34.14
2023-01-09T09:14:57.875Z, 34.16
2023-01-09T09:15:57.901Z, 34.11
2023-01-09T09:16:57.836Z, 34.11
2023-01-09T09:17:57.838Z, 34.11
2023-01-09T09:18:57.910Z, 34.11
2023-01-09T09:19:57.927Z, 34.08
2023-01-09T09:20:57.887Z, 34.05
2023-01-09T09:21:57.904Z, 33.99
2023-01-09T09:22:57.895Z, 34.01
2023-01-09T09:23:57.927Z, 33.99
2023-01-09T09:24:57.938Z, 33.99
2023-01-09T09:25:57.962Z, 34.00
2023-01-09T09:26:58.026Z, 33.95
2023-01-09T09:27:58.005Z, 33.90
2023-01-09T09:28:58.076Z, 33.89
2023-01-09T09:29:58.043Z, 33.87
2023-01-09T09:30:58.143Z, 33.88
2023-01-09T09:31:59.404Z, 33.86
2023-01-09T09:32:58.068Z, 33.83
2023-01-09T09:33:58.142Z, 33.80
2023-01-09T09:34:58.127Z, 33.82
2023-01-09T09:35:58.206Z, 33.77
2023-01-09T09:36:58.263Z, 33.76
2023-01-09T09:37:58.149Z, 33.76
2023-01-09T09:38:58.146Z, 33.78
2023-01-09T09:40:01.489Z, 33.77
2023-01-09T09:40:58.181Z, 33.77
2023-01-09T09:41:58.191Z, 33.73
2023-01-09T09:42:58.317Z, 33.73
2023-01-09T09:43:58.282Z, 33.67
2023-01-09T09:44:58.299Z, 33.69
2023-01-09T09:45:58.269Z, 33.66
2023-01-09T09:46:58.278Z, 33.66
2023-01-09T09:47:58.333Z, 33.66
2023-01-09T09:48:58.339Z, 33.65
2023-01-09T09:49:58.369Z, 33.65
2023-01-09T09:50:58.379Z, 33.61
2023-01-09T09:51:58.349Z, 33.54
2023-01-09T09:52:58.350Z, 33.54
2023-01-09T09:53:58.363Z, 33.55
2023-01-09T09:54:58.403Z, 33.50
2023-01-09T09:55:58.454Z, 33.49
2023-01-09T09:56:58.419Z, 33.45
2023-01-09T09:57:58.425Z, 33.52
2023-01-09T09:58:58.436Z, 33.53
2023-01-09T09:59:58.449Z, 33.51
2023-01-09T10:00:58.457Z, 33.45
2023-01-09T10:01:58.660Z, 33.44
2023-01-09T10:02:58.611Z, 33.41
2023-01-09T10:03:58.581Z, 33.40
2023-01-09T10:04:58.569Z, 33.40
2023-01-09T10:05:58.553Z, 33.36
2023-01-09T10:06:58.545Z, 33.35
2023-01-09T10:08:03.510Z, 33.36
2023-01-09T10:08:58.568Z, 33.37
2023-01-09T10:09:58.581Z, 33.32
2023-01-09T10:10:58.591Z, 33.33
2023-01-09T10:11:58.674Z, 33.31
2023-01-09T10:12:58.669Z, 33.27
2023-01-09T10:13:58.647Z, 33.23
2023-01-09T10:14:58.661Z, 33.23
2023-01-09T10:15:58.782Z, 33.18
2023-01-09T10:16:58.685Z, 33.18
2023-01-09T10:17:58.755Z, 33.17
2023-01-09T10:18:58.724Z, 33.16
2023-01-09T10:19:58.796Z, 33.13
2023-01-09T10:20:58.768Z, 33.15
2023-01-09T10:21:58.869Z, 33.13
2023-01-09T10:22:58.802Z, 33.12
2023-01-09T10:23:58.798Z, 33.10
2023-01-09T10:24:58.844Z, 33.04
2023-01-09T10:25:58.811Z, 33.04
2023-01-09T10:26:58.863Z, 33.05
2023-01-09T10:27:58.846Z, 33.05
2023-01-09T10:28:58.847Z, 33.04
2023-01-09T10:29:58.870Z, 33.05
2023-01-09T10:30:58.898Z, 33.03
2023-01-09T10:31:58.974Z, 33.01
2023-01-09T10:32:58.948Z, 32.99
2023-01-09T10:33:58.987Z, 32.96
2023-01-09T10:34:58.969Z, 32.98
2023-01-09T10:35:59.013Z, 32.96
2023-01-09T10:36:59.053Z, 32.93
2023-01-09T10:37:59.062Z, 32.90
2023-01-09T10:38:59.029Z, 32.86
2023-01-09T10:39:59.025Z, 32.87
2023-01-09T10:41:01.683Z, 32.92
2023-01-09T10:41:59.046Z, 32.91
2023-01-09T10:42:59.059Z, 32.94
2023-01-09T10:43:59.089Z, 32.92
2023-01-09T10:44:59.145Z, 32.85
2023-01-09T10:45:59.116Z, 32.84
2023-01-09T10:46:59.271Z, 32.82
2023-01-09T10:47:59.146Z, 32.84
2023-01-09T10:48:59.188Z, 32.84
2023-01-09T10:49:59.163Z, 32.81
2023-01-09T10:50:59.166Z, 32.78
2023-01-09T10:51:59.233Z, 32.77
2023-01-09T10:52:59.217Z, 32.78
2023-01-09T10:53:59.231Z, 32.77
2023-01-09T10:54:59.225Z, 32.77
2023-01-09T10:55:59.244Z, 32.78
2023-01-09T10:56:59.246Z, 32.70
2023-01-09T10:57:59.273Z, 32.69
2023-01-09T10:58:59.331Z, 32.66
2023-01-09T10:59:59.296Z, 32.64
2023-01-09T11:00:59.370Z, 32.66
2023-01-09T11:01:59.481Z, 33.77
2023-01-09T11:02:59.515Z, 34.30
2023-01-09T11:03:59.347Z, 34.43
2023-01-09T11:04:59.364Z, 34.45
2023-01-09T11:05:59.434Z, 34.36
2023-01-09T11:06:59.393Z, 34.20
2023-01-09T11:07:59.465Z, 33.84
2023-01-09T11:08:59.432Z, 35.91
2023-01-09T11:09:59.529Z, 41.93
2023-01-09T11:10:59.485Z, 45.73
2023-01-09T11:11:59.520Z, 44.39
2023-01-09T11:12:59.506Z, 42.20
2023-01-09T11:13:59.552Z, 40.11
2023-01-09T11:14:59.529Z, 38.18
2023-01-09T11:15:59.661Z, 36.55
2023-01-09T11:16:59.570Z, 34.88
2023-01-09T11:17:59.567Z, 32.53
2023-01-09T11:18:59.560Z, 30.10
2023-01-09T11:19:59.573Z, 27.97
2023-01-09T11:20:59.686Z, 29.05
2023-01-09T11:21:59.636Z, 34.88
2023-01-09T11:22:59.694Z, 39.91
2023-01-09T11:23:59.675Z, 43.50
2023-01-09T11:24:59.712Z, 45.87
2023-01-09T11:25:59.687Z, 44.96
2023-01-09T11:26:59.705Z, 43.09
2023-01-09T11:27:59.701Z, 41.56
2023-01-09T11:28:59.775Z, 39.74
2023-01-09T11:29:59.755Z, 38.19
2023-01-09T11:30:59.823Z, 37.68
2023-01-09T11:31:59.791Z, 37.98
2023-01-09T11:32:59.800Z, 37.96
2023-01-09T11:33:59.815Z, 37.84
2023-01-09T11:34:59.803Z, 37.80
2023-01-09T11:35:59.893Z, 37.73
2023-01-09T11:36:59.929Z, 37.66
2023-01-09T11:37:59.868Z, 37.56
2023-01-09T11:38:59.847Z, 37.48
2023-01-09T11:39:59.929Z, 37.39
2023-01-09T11:40:59.904Z, 37.28
2023-01-09T11:41:59.960Z, 37.17
2023-01-09T11:42:59.933Z, 37.08
2023-01-09T11:43:59.933Z, 36.97
2023-01-09T11:44:59.942Z, 36.84
2023-01-09T11:46:01.615Z, 36.71
2023-01-09T11:47:00.143Z, 36.59
2023-01-09T11:48:00.018Z, 36.47
2023-01-09T11:49:00.083Z, 36.36
2023-01-09T11:50:00.044Z, 36.26
2023-01-09T11:51:00.100Z, 36.15
2023-01-09T11:52:00.056Z, 36.03
2023-01-09T11:53:00.125Z, 35.93
2023-01-09T11:54:00.086Z, 35.82
2023-01-09T11:55:00.105Z, 35.70
2023-01-09T11:56:00.155Z, 35.59
2023-01-09T11:57:00.123Z, 35.45
2023-01-09T11:58:00.139Z, 35.38
2023-01-09T11:59:00.203Z, 35.29
2023-01-09T12:00:00.182Z, 35.16
2023-01-09T12:01:00.238Z, 35.05
2023-01-09T12:02:00.259Z, 34.95
2023-01-09T12:03:00.307Z, 34.85
2023-01-09T12:04:00.234Z, 34.72
2023-01-09T12:05:00.278Z, 34.58
2023-01-09T12:06:00.258Z, 34.49
2023-01-09T12:07:00.272Z, 34.36
2023-01-09T12:08:00.269Z, 34.24
2023-01-09T12:09:00.274Z, 34.16
2023-01-09T12:10:00.297Z, 34.06
2023-01-09T12:11:00.320Z, 33.96
2023-01-09T12:12:00.393Z, 33.89
2023-01-09T12:13:00.366Z, 33.79
2023-01-09T12:14:00.366Z, 33.70
2023-01-09T12:15:00.372Z, 33.61
2023-01-09T12:16:00.483Z, 33.51
2023-01-09T12:17:00.415Z, 33.44
2023-01-09T12:18:00.410Z, 33.37
2023-01-09T12:19:00.507Z, 33.30
2023-01-09T12:20:00.478Z, 33.24
2023-01-09T12:21:00.513Z, 33.15
2023-01-09T12:22:00.490Z, 33.10
2023-01-09T12:23:00.536Z, 33.02
2023-01-09T12:24:00.528Z, 32.96
2023-01-09T12:25:00.526Z, 32.91
2023-01-09T12:26:00.527Z, 32.83
2023-01-09T12:27:00.532Z, 32.77
2023-01-09T12:28:00.546Z, 32.69
2023-01-09T12:29:00.567Z, 32.66